Time;durP1;ratioP1;P1;durP2;ratioP2;P2;SDS_P1;SDS_P2;PMS_P1;PMS_P2;Temp;Humidity;BMP_temperature;BMP_pressure;BME280_temperature;BME280_humidity;BME280_pressure;Samples;Min_cycle;Max_cycle;Signal;HPM_P1;HPM_P2
2021/10/20 00:01:16;;;;;;;7.27;6.57;;;12.50;86.90;;;;;;5049221;28;20563;-88
2021/10/20 00:03:41;;;;;;;8.67;6.83;;;12.50;87.10;;;;;;5045588;28;20210;-88
2021/10/20 00:06:07;;;;;;;6.53;5.93;;;12.50;86.70;;;;;;5032885;28;20190;-88
2021/10/20 00:08:34;;;;;;;6.57;6.00;;;12.50;86.70;;;;;;5049784;28;20220;-87
2021/10/20 00:10:59;;;;;;;6.73;6.17;;;12.50;86.70;;;;;;5013278;28;20286;-87
2021/10/20 00:13:26;;;;;;;7.00;6.30;;;12.50;86.70;;;;;;5048334;28;20306;-88
2021/10/20 00:15:53;;;;;;;7.07;6.37;;;12.40;86.80;;;;;;5059376;28;20242;-88
2021/10/20 00:18:19;;;;;;;6.77;6.17;;;12.40;86.70;;;;;;5026600;28;20203;-88
2021/10/20 00:20:45;;;;;;;6.07;5.57;;;12.40;87.10;;;;;;5036862;28;20186;-88
2021/10/20 00:23:12;;;;;;;7.50;6.43;;;12.40;87.70;;;;;;5049061;28;20234;-88
2021/10/20 00:25:38;;;;;;;6.97;6.03;;;12.50;86.40;;;;;;5049402;28;20200;-88
2021/10/20 00:28:05;;;;;;;9.77;5.93;;;12.40;86.30;;;;;;5043068;28;20196;-88
2021/10/20 00:30:31;;;;;;;6.20;5.70;;;12.40;86.30;;;;;;5050905;28;20196;-88
2021/10/20 00:32:57;;;;;;;6.20;5.70;;;12.30;86.50;;;;;;5029404;28;20244;-88
2021/10/20 00:35:23;;;;;;;5.90;5.40;;;12.30;86.40;;;;;;5044561;28;20184;-88
2021/10/20 00:37:49;;;;;;;7.37;5.47;;;12.20;86.30;;;;;;5032587;28;20263;-88
2021/10/20 00:40:14;;;;;;;6.10;5.50;;;12.10;86.40;;;;;;5034436;28;20275;-88
2021/10/20 00:42:43;;;;;;;6.50;5.90;;;12.10;86.50;;;;;;5029124;28;20193;-88
2021/10/20 00:45:10;;;;;;;6.23;5.50;;;12.10;87.00;;;;;;5039275;28;20204;-88
2021/10/20 00:47:37;;;;;;;6.07;5.37;;;12.00;87.40;;;;;;5051663;28;20192;-88
2021/10/20 00:50:13;;;;;;;6.17;5.57;;;12.00;87.40;;;;;;5049326;28;20248;-88
2021/10/20 00:52:41;;;;;;;8.77;5.40;;;12.00;87.70;;;;;;5042754;28;20413;-88
2021/10/20 00:55:09;;;;;;;5.87;5.13;;;12.00;87.50;;;;;;5050530;28;20266;-89
2021/10/20 00:57:37;;;;;;;6.47;5.43;;;11.90;87.30;;;;;;5053211;28;20173;-88
2021/10/20 01:00:06;;;;;;;6.23;5.73;;;11.90;87.20;;;;;;5057692;28;20265;-88
2021/10/20 01:02:32;;;;;;;6.10;5.60;;;11.90;87.80;;;;;;5049798;28;20192;-88
2021/10/20 01:04:58;;;;;;;6.53;5.13;;;11.90;87.20;;;;;;5050802;28;20214;-88
2021/10/20 01:07:24;;;;;;;5.67;5.17;;;12.00;87.00;;;;;;5040594;28;20245;-88
2021/10/20 01:09:50;;;;;;;5.53;5.03;;;12.00;87.10;;;;;;5039006;28;20628;-89
2021/10/20 01:12:17;;;;;;;7.63;5.50;;;12.00;87.00;;;;;;5047912;28;20218;-86
2021/10/20 01:14:43;;;;;;;5.90;5.37;;;11.90;87.30;;;;;;5047597;28;20220;-89
2021/10/20 01:17:09;;;;;;;6.57;5.07;;;12.00;88.40;;;;;;5047800;28;20212;-86
2021/10/20 01:19:37;;;;;;;7.93;6.03;;;12.00;87.40;;;;;;5057834;28;20186;-87
2021/10/20 01:22:04;;;;;;;8.13;5.57;;;11.90;86.90;;;;;;5055525;28;20184;-86
2021/10/20 01:24:29;;;;;;;7.73;5.63;;;11.90;87.00;;;;;;5056292;28;20233;-86
2021/10/20 01:26:56;;;;;;;6.57;5.10;;;11.80;87.10;;;;;;5048393;28;20193;-86
2021/10/20 01:29:24;;;;;;;5.67;5.17;;;11.80;87.20;;;;;;5049444;28;20200;-87
2021/10/20 01:31:52;;;;;;;6.30;5.70;;;11.70;87.90;;;;;;5046806;28;20226;-87
2021/10/20 01:34:18;;;;;;;7.80;5.53;;;11.60;88.30;;;;;;5030003;28;20270;-87
2021/10/20 01:36:44;;;;;;;6.33;5.73;;;11.60;88.30;;;;;;5019528;28;20192;-89
2021/10/20 01:39:10;;;;;;;5.87;5.30;;;11.60;88.40;;;;;;5047828;28;20658;-86
2021/10/20 01:41:37;;;;;;;5.83;5.33;;;11.60;89.70;;;;;;5044994;28;20339;-89
2021/10/20 01:44:04;;;;;;;5.77;5.30;;;11.50;89.20;;;;;;5038667;28;20719;-87
2021/10/20 01:46:30;;;;;;;5.60;5.10;;;11.50;88.50;;;;;;5023814;28;20726;-87
2021/10/20 01:48:56;;;;;;;5.87;5.10;;;11.60;87.70;;;;;;5047597;28;20690;-87
2021/10/20 01:51:21;;;;;;;5.70;4.93;;;11.60;87.50;;;;;;5049791;28;20197;-87
2021/10/20 01:53:48;;;;;;;5.77;5.27;;;11.60;87.30;;;;;;5030914;28;20217;-87
2021/10/20 01:56:14;;;;;;;6.10;5.50;;;11.60;87.10;;;;;;5045500;28;20191;-87
2021/10/20 01:58:41;;;;;;;8.87;5.07;;;11.40;87.30;;;;;;5051348;28;20188;-86
2021/10/20 02:01:08;;;;;;;5.90;5.00;;;11.40;88.30;;;;;;5051846;28;20194;-87
2021/10/20 02:03:38;;;;;;;7.23;5.53;;;11.50;88.20;;;;;;5048085;28;20720;-87
2021/10/20 02:06:06;;;;;;;5.37;4.77;;;11.60;87.70;;;;;;5027676;28;20209;-87
2021/10/20 02:08:33;;;;;;;6.10;5.40;;;11.60;87.30;;;;;;5046925;28;20218;-87
2021/10/20 02:10:59;;;;;;;5.97;5.37;;;11.70;87.20;;;;;;5048093;28;20554;-87
2021/10/20 02:13:25;;;;;;;6.13;5.23;;;11.60;87.60;;;;;;5044576;28;20234;-87
2021/10/20 02:15:52;;;;;;;6.77;5.97;;;11.60;87.80;;;;;;5047237;28;20188;-87
2021/10/20 02:18:18;;;;;;;5.83;5.20;;;11.60;87.80;;;;;;5047937;28;20195;-87
2021/10/20 02:20:44;;;;;;;5.70;5.23;;;11.60;88.20;;;;;;5044506;28;20569;-87
2021/10/20 02:23:10;;;;;;;6.00;5.23;;;11.60;88.30;;;;;;5050769;28;20242;-87
2021/10/20 02:25:35;;;;;;;6.93;6.33;;;11.60;87.90;;;;;;5067435;28;20204;-87
2021/10/20 02:28:01;;;;;;;6.87;6.17;;;11.50;88.80;;;;;;5068614;28;20197;-87
2021/10/20 02:30:27;;;;;;;6.67;6.07;;;11.40;89.60;;;;;;5032660;28;20211;-88
2021/10/20 02:32:53;;;;;;;7.97;6.97;;;11.40;90.00;;;;;;5036334;28;20232;-87
2021/10/20 02:35:19;;;;;;;6.67;5.90;;;11.30;90.00;;;;;;5044997;28;20211;-87
2021/10/20 02:37:45;;;;;;;7.50;6.80;;;11.20;90.70;;;;;;5038046;28;20298;-87
2021/10/20 02:40:13;;;;;;;7.47;6.27;;;11.10;91.20;;;;;;5027756;28;20964;-87
2021/10/20 02:42:40;;;;;;;6.73;6.03;;;11.10;90.90;;;;;;5039094;28;20322;-87
2021/10/20 02:45:08;;;;;;;6.60;6.00;;;11.10;90.30;;;;;;5041389;28;20857;-87
2021/10/20 02:47:45;;;;;;;6.43;5.63;;;11.00;90.80;;;;;;5047086;28;20275;-87
2021/10/20 02:50:11;;;;;;;6.20;5.60;;;11.10;90.80;;;;;;5054496;28;20278;-86
2021/10/20 02:52:37;;;;;;;6.13;5.53;;;11.30;90.30;;;;;;5052650;28;20223;-87
2021/10/20 02:55:05;;;;;;;6.17;5.57;;;11.30;89.60;;;;;;5048308;28;20200;-87
2021/10/20 02:57:30;;;;;;;7.03;5.50;;;11.30;89.50;;;;;;5019943;28;20189;-87
2021/10/20 02:59:57;;;;;;;7.57;5.83;;;11.20;89.60;;;;;;5039143;28;20192;-87
2021/10/20 03:02:26;;;;;;;6.63;5.90;;;11.20;90.00;;;;;;5042739;28;20643;-87
2021/10/20 03:04:52;;;;;;;6.57;5.73;;;11.10;91.00;;;;;;5049301;28;20297;-87
2021/10/20 03:07:18;;;;;;;6.43;5.87;;;11.10;90.70;;;;;;5029345;28;20370;-89
2021/10/20 03:09:44;;;;;;;5.90;5.40;;;11.20;90.30;;;;;;5044885;28;20612;-87
2021/10/20 03:12:10;;;;;;;6.57;5.97;;;11.20;89.90;;;;;;5048397;28;20253;-87
2021/10/20 03:14:35;;;;;;;7.27;5.73;;;11.30;89.70;;;;;;5034460;28;20551;-87
2021/10/20 03:17:01;;;;;;;6.40;5.70;;;11.30;89.40;;;;;;5049180;28;20656;-87
2021/10/20 03:19:27;;;;;;;6.50;5.90;;;11.30;89.50;;;;;;5049584;28;20234;-87
2021/10/20 03:21:53;;;;;;;6.70;5.63;;;11.30;90.00;;;;;;5030709;28;20203;-87
2021/10/20 03:24:18;;;;;;;5.83;5.33;;;11.30;89.90;;;;;;5050350;28;20257;-87
2021/10/20 03:26:44;;;;;;;5.60;5.10;;;11.40;89.40;;;;;;5031646;28;20199;-87
2021/10/20 03:29:10;;;;;;;7.53;5.93;;;11.40;89.00;;;;;;5050214;28;20203;-87
2021/10/20 03:31:35;;;;;;;5.53;5.07;;;11.40;88.80;;;;;;5051290;28;20632;-87
2021/10/20 03:34:02;;;;;;;5.80;5.30;;;11.40;88.50;;;;;;5032929;28;20219;-88
2021/10/20 03:36:28;;;;;;;5.77;5.27;;;11.30;88.90;;;;;;5031327;28;20200;-88
2021/10/20 03:38:54;;;;;;;5.50;4.80;;;11.40;88.40;;;;;;5045159;28;20184;-88
2021/10/20 03:41:20;;;;;;;6.53;5.70;;;11.40;88.00;;;;;;5048940;28;20208;-88
2021/10/20 03:43:46;;;;;;;7.30;5.90;;;11.30;87.90;;;;;;5031727;28;20687;-87
2021/10/20 03:46:11;;;;;;;8.33;6.40;;;11.40;88.20;;;;;;5051574;28;20672;-88
2021/10/20 03:48:37;;;;;;;6.37;5.87;;;11.30;88.10;;;;;;5051165;28;20206;-87
2021/10/20 03:51:03;;;;;;;6.53;5.90;;;11.40;88.10;;;;;;5020490;28;20790;-87
2021/10/20 03:53:29;;;;;;;5.87;5.37;;;11.40;87.60;;;;;;5032982;28;20351;-88
2021/10/20 03:55:55;;;;;;;10.30;5.60;;;11.30;87.20;;;;;;5020702;28;20219;-87
2021/10/20 03:58:22;;;;;;;7.03;5.50;;;11.20;87.30;;;;;;5037360;28;20198;-87
2021/10/20 04:00:49;;;;;;;6.73;6.20;;;11.20;88.40;;;;;;5006184;28;20215;-87
2021/10/20 04:03:14;;;;;;;7.10;6.53;;;11.10;88.90;;;;;;5030961;28;20708;-88
2021/10/20 04:05:40;;;;;;;6.50;6.00;;;11.10;89.00;;;;;;5049513;28;20200;-88
2021/10/20 04:08:06;;;;;;;5.90;5.30;;;11.20;88.50;;;;;;5049995;28;20204;-88
2021/10/20 04:10:32;;;;;;;6.90;6.30;;;11.10;88.20;;;;;;5035082;28;20196;-89
2021/10/20 04:12:57;;;;;;;7.77;6.70;;;11.10;88.60;;;;;;5056401;28;20216;-87
2021/10/20 04:15:25;;;;;;;7.13;6.43;;;11.20;88.60;;;;;;5052149;28;20191;-88
2021/10/20 04:17:51;;;;;;;7.07;6.30;;;11.30;88.80;;;;;;5050757;28;20241;-87
2021/10/20 04:20:19;;;;;;;8.13;6.70;;;11.10;89.60;;;;;;5051943;28;20200;-86
2021/10/20 04:22:45;;;;;;;6.53;5.93;;;11.00;90.60;;;;;;5030722;28;20195;-88
2021/10/20 04:25:12;;;;;;;8.17;7.37;;;10.90;91.20;;;;;;5048943;28;20200;-88
2021/10/20 04:27:40;;;;;;;8.77;8.07;;;11.00;90.90;;;;;;5046931;28;20190;-88
2021/10/20 04:30:07;;;;;;;7.47;6.27;;;10.90;91.00;;;;;;5050093;28;20744;-88
2021/10/20 04:32:33;;;;;;;6.80;6.20;;;10.80;91.50;;;;;;5047532;28;20686;-87
2021/10/20 04:35:00;;;;;;;6.40;5.33;;;10.70;91.70;;;;;;5029500;28;20225;-88
2021/10/20 04:37:29;;;;;;;7.77;5.87;;;10.70;91.90;;;;;;5047736;28;20197;-88
2021/10/20 04:39:57;;;;;;;8.50;6.17;;;10.70;92.00;;;;;;5025618;28;20206;-88
2021/10/20 04:42:24;;;;;;;6.73;6.13;;;10.60;91.80;;;;;;5027548;28;20213;-88
2021/10/20 04:44:51;;;;;;;7.00;6.17;;;10.60;91.20;;;;;;5050398;28;20245;-89
2021/10/20 04:47:16;;;;;;;7.03;6.27;;;10.70;91.30;;;;;;5037297;28;20203;-89
2021/10/20 04:49:43;;;;;;;7.77;6.97;;;10.70;91.10;;;;;;5022226;28;20198;-90
2021/10/20 04:52:09;;;;;;;6.40;5.90;;;10.70;91.20;;;;;;5023942;28;20238;-90
2021/10/20 04:54:35;;;;;;;14.27;12.80;;;10.70;91.50;;;;;;5053461;28;20297;-87
2021/10/20 04:57:00;;;;;;;14.60;11.13;;;10.80;89.70;;;;;;5056776;28;20253;-88
2021/10/20 04:59:31;;;;;;;10.50;9.47;;;10.80;89.60;;;;;;5036520;28;20198;-88
2021/10/20 05:01:57;;;;;;;10.60;9.20;;;10.80;89.60;;;;;;5058579;28;20191;-88
2021/10/20 05:04:23;;;;;;;8.93;8.03;;;10.80;90.00;;;;;;5036562;28;20224;-88
2021/10/20 05:06:49;;;;;;;12.90;8.53;;;10.80;90.10;;;;;;5055967;28;20206;-88
2021/10/20 05:09:14;;;;;;;8.77;7.87;;;10.80;88.60;;;;;;5057611;28;20199;-89
2021/10/20 05:11:40;;;;;;;6.97;6.27;;;10.70;89.30;;;;;;5023792;28;20252;-88
2021/10/20 05:14:06;;;;;;;6.17;5.57;;;10.70;89.90;;;;;;5038262;28;20275;-90
2021/10/20 05:16:31;;;;;;;6.80;6.10;;;10.70;90.10;;;;;;5039344;28;20195;-88
2021/10/20 05:18:57;;;;;;;9.00;6.63;;;10.70;90.90;;;;;;5039177;28;20198;-89
2021/10/20 05:21:23;;;;;;;6.73;6.23;;;10.60;89.40;;;;;;5020812;28;20214;-88
2021/10/20 05:23:50;;;;;;;6.73;6.03;;;10.60;90.10;;;;;;5056065;28;20233;-89
2021/10/20 05:26:17;;;;;;;9.30;7.50;;;10.60;90.50;;;;;;5041818;28;20199;-88
2021/10/20 05:28:43;;;;;;;9.37;8.37;;;10.70;90.50;;;;;;5051908;28;20246;-89
2021/10/20 05:31:09;;;;;;;9.70;8.67;;;10.60;88.90;;;;;;5054677;28;20199;-88
2021/10/20 05:33:34;;;;;;;13.40;9.10;;;10.60;89.90;;;;;;5051972;28;20219;-88
2021/10/20 05:36:00;;;;;;;12.03;9.37;;;10.50;90.50;;;;;;5054170;28;20202;-89
2021/10/20 05:38:26;;;;;;;11.30;9.03;;;10.70;90.80;;;;;;5055591;28;20206;-88
2021/10/20 05:40:51;;;;;;;7.87;6.90;;;10.70;90.40;;;;;;5035170;28;20191;-89
2021/10/20 05:43:19;;;;;;;7.77;6.73;;;10.60;90.10;;;;;;5049824;28;20742;-90
2021/10/20 05:45:47;;;;;;;8.07;7.17;;;10.50;90.50;;;;;;5041281;28;20186;-89
2021/10/20 05:48:15;;;;;;;7.90;6.77;;;10.60;90.30;;;;;;5028151;28;20213;-89
2021/10/20 05:50:44;;;;;;;8.23;6.97;;;10.60;90.70;;;;;;5048813;28;20195;-91
2021/10/20 05:53:10;;;;;;;7.10;6.40;;;10.60;90.50;;;;;;5045957;28;20225;-90
2021/10/20 05:55:37;;;;;;;11.17;6.53;;;10.60;92.10;;;;;;5027375;28;20198;-90
2021/10/20 05:58:05;;;;;;;8.10;7.17;;;10.50;91.80;;;;;;5019171;28;20729;-89
2021/10/20 06:00:30;;;;;;;7.63;6.83;;;10.50;91.70;;;;;;5045032;28;20199;-91
2021/10/20 06:02:56;;;;;;;7.50;6.80;;;10.50;92.00;;;;;;5026626;28;20671;-91
2021/10/20 06:05:22;;;;;;;6.63;6.00;;;10.60;91.70;;;;;;5030220;28;20183;-90
2021/10/20 06:07:48;;;;;;;7.33;5.83;;;10.60;91.90;;;;;;5026351;28;20879;-90
2021/10/20 06:10:15;;;;;;;7.27;5.97;;;10.50;92.30;;;;;;5039727;28;20198;-90
2021/10/20 06:12:41;;;;;;;8.30;6.47;;;10.50;92.60;;;;;;5020215;28;20210;-90
2021/10/20 06:15:07;;;;;;;6.77;6.17;;;10.50;92.90;;;;;;5045603;28;20186;-90
2021/10/20 06:17:34;;;;;;;6.87;6.27;;;10.50;93.30;;;;;;5042846;28;20202;-90
2021/10/20 06:20:00;;;;;;;8.23;6.13;;;10.50;93.40;;;;;;5039397;28;20215;-90
2021/10/20 06:22:26;;;;;;;6.80;6.17;;;10.50;93.30;;;;;;5038090;28;20201;-90
2021/10/20 06:24:52;;;;;;;7.00;6.30;;;10.60;93.00;;;;;;5048686;28;20219;-90
2021/10/20 06:27:18;;;;;;;7.33;6.20;;;10.70;92.30;;;;;;5042939;28;20205;-90
2021/10/20 06:29:43;;;;;;;6.70;5.93;;;10.70;91.40;;;;;;5052951;28;20227;-90
2021/10/20 06:32:09;;;;;;;7.13;6.10;;;10.70;91.80;;;;;;5035419;28;20277;-90
2021/10/20 06:34:35;;;;;;;6.97;5.67;;;10.70;91.60;;;;;;5055506;28;20211;-90
2021/10/20 06:37:02;;;;;;;5.97;5.47;;;10.70;91.20;;;;;;5043679;28;20202;-90
2021/10/20 06:39:27;;;;;;;6.30;5.70;;;10.80;91.20;;;;;;5047129;28;20186;-90
2021/10/20 06:41:53;;;;;;;8.63;5.80;;;10.70;91.20;;;;;;5043261;28;20264;-89
2021/10/20 06:44:19;;;;;;;10.47;9.47;;;10.60;91.80;;;;;;5026290;28;20225;-90
2021/10/20 06:46:45;;;;;;;7.43;6.73;;;10.70;92.10;;;;;;5045888;28;20543;-90
2021/10/20 06:49:11;;;;;;;7.63;6.50;;;10.70;91.60;;;;;;5025385;28;20199;-91
2021/10/20 06:51:37;;;;;;;9.47;5.97;;;10.70;92.00;;;;;;5043249;28;20199;-90
2021/10/20 06:54:03;;;;;;;7.87;6.27;;;10.60;92.10;;;;;;5025364;28;20621;-90
2021/10/20 06:56:28;;;;;;;8.47;7.00;;;10.60;92.40;;;;;;5027994;28;20211;-91
2021/10/20 06:58:54;;;;;;;8.13;6.57;;;10.70;92.00;;;;;;5024029;28;20190;-90
2021/10/20 07:01:20;;;;;;;8.40;6.30;;;10.70;92.20;;;;;;5025058;28;20667;-90
2021/10/20 07:03:45;;;;;;;8.93;6.43;;;10.70;92.30;;;;;;5023848;28;20214;-89
2021/10/20 07:06:11;;;;;;;7.70;6.23;;;10.70;92.30;;;;;;5042878;28;20231;-90
2021/10/20 07:08:37;;;;;;;6.13;5.50;;;10.70;92.80;;;;;;5035076;28;20707;-88
2021/10/20 07:11:04;;;;;;;10.37;6.37;;;10.70;92.80;;;;;;5014748;28;20203;-89
2021/10/20 07:13:29;;;;;;;9.23;6.37;;;10.60;92.70;;;;;;5014285;28;20222;-87
2021/10/20 07:15:58;;;;;;;7.53;6.67;;;10.70;93.00;;;;;;5018278;28;20190;-89
2021/10/20 07:18:24;;;;;;;8.97;6.70;;;10.60;93.20;;;;;;5035680;28;20185;-89
2021/10/20 07:20:50;;;;;;;7.20;6.50;;;10.70;93.50;;;;;;5033229;28;20196;-90
2021/10/20 07:23:15;;;;;;;7.50;6.30;;;10.70;93.50;;;;;;5035223;28;20226;-91
2021/10/20 07:25:41;;;;;;;6.80;6.13;;;10.60;93.70;;;;;;5022067;28;20193;-90
2021/10/20 07:28:09;;;;;;;7.97;6.37;;;10.80;93.90;;;;;;5047897;28;20198;-89
2021/10/20 07:30:36;;;;;;;7.70;5.50;;;10.90;93.20;;;;;;5046567;28;20650;-89
2021/10/20 07:33:02;;;;;;;6.93;6.27;;;10.90;93.60;;;;;;5061804;28;21271;-89
2021/10/20 07:35:28;;;;;;;7.07;6.43;;;11.00;93.80;;;;;;5064504;28;20222;-90
2021/10/20 07:37:54;;;;;;;7.73;6.83;;;11.20;92.60;;;;;;5043145;28;20204;-91
2021/10/20 07:40:20;;;;;;;6.97;6.20;;;11.30;92.80;;;;;;5023281;28;20369;-90
2021/10/20 07:42:46;;;;;;;8.27;6.53;;;11.40;93.00;;;;;;5042962;28;20210;-91
2021/10/20 07:45:15;;;;;;;7.03;6.33;;;11.70;92.40;;;;;;5040083;28;20203;-90
2021/10/20 07:47:42;;;;;;;7.00;6.27;;;11.90;92.30;;;;;;5033379;28;20196;-90
2021/10/20 07:50:08;;;;;;;8.10;6.60;;;12.00;92.00;;;;;;5035038;28;20196;-90
2021/10/20 07:52:35;;;;;;;7.03;6.37;;;12.30;92.40;;;;;;5053973;28;20200;-89
2021/10/20 07:55:05;;;;;;;8.33;6.43;;;12.30;91.70;;;;;;5041529;28;20235;-90
2021/10/20 07:57:31;;;;;;;7.40;6.70;;;12.20;91.90;;;;;;5060644;28;20192;-89
2021/10/20 07:59:57;;;;;;;6.90;6.30;;;12.20;92.80;;;;;;5051718;28;20199;-89
2021/10/20 08:02:23;;;;;;;7.20;6.00;;;12.40;91.80;;;;;;5036233;28;20253;-90
2021/10/20 08:04:49;;;;;;;8.53;7.73;;;12.60;91.50;;;;;;5034416;28;20217;-90
2021/10/20 08:07:14;;;;;;;11.03;10.03;;;12.70;91.30;;;;;;5013449;28;20193;-90
2021/10/20 08:09:42;;;;;;;7.47;6.60;;;12.90;91.00;;;;;;5025596;28;20186;-90
2021/10/20 08:12:08;;;;;;;6.53;5.83;;;13.00;91.20;;;;;;5035486;28;20214;-91
2021/10/20 08:14:40;;;;;;;6.53;5.93;;;13.00;91.60;;;;;;5038474;28;20214;-91
2021/10/20 08:17:06;;;;;;;10.30;5.63;;;13.00;92.20;;;;;;5033585;28;20196;-91
2021/10/20 08:19:31;;;;;;;5.77;5.27;;;13.00;91.90;;;;;;5035049;28;20192;-90
2021/10/20 08:21:57;;;;;;;5.67;4.90;;;13.20;91.20;;;;;;5034489;28;20188;-90
2021/10/20 08:24:23;;;;;;;6.60;5.30;;;13.30;89.90;;;;;;5018438;28;20220;-91
2021/10/20 08:26:49;;;;;;;6.10;5.17;;;13.50;89.90;;;;;;5036336;28;20174;-91
2021/10/20 08:29:14;;;;;;;6.00;5.20;;;13.70;88.00;;;;;;5039982;28;20202;-90
2021/10/20 08:31:40;;;;;;;5.00;4.50;;;13.90;87.10;;;;;;5020802;28;20188;-91
2021/10/20 08:34:06;;;;;;;5.33;4.27;;;14.30;84.90;;;;;;5034764;28;20210;-90
2021/10/20 08:36:32;;;;;;;5.47;3.90;;;14.60;83.80;;;;;;5020625;28;20197;-90
2021/10/20 08:38:57;;;;;;;5.53;4.20;;;15.00;80.40;;;;;;5005626;28;20196;-91
2021/10/20 08:41:26;;;;;;;5.80;4.47;;;15.40;79.10;;;;;;5004226;28;20189;-91
2021/10/20 08:43:52;;;;;;;4.80;4.30;;;15.70;77.20;;;;;;5034278;28;20585;-91
2021/10/20 08:46:21;;;;;;;6.10;4.30;;;15.80;78.30;;;;;;5020414;28;20184;-91
2021/10/20 08:48:47;;;;;;;4.90;4.30;;;15.70;79.20;;;;;;5036633;28;20349;-91
2021/10/20 08:51:15;;;;;;;6.20;4.20;;;15.80;78.50;;;;;;5020026;28;20201;-90
2021/10/20 08:53:40;;;;;;;4.20;3.80;;;15.90;77.80;;;;;;5018053;28;20225;-90
2021/10/20 08:56:06;;;;;;;4.73;4.37;;;16.00;77.20;;;;;;5003749;28;20201;-91
2021/10/20 08:58:32;;;;;;;4.67;4.27;;;16.10;77.00;;;;;;5004447;28;20681;-90
2021/10/20 09:00:58;;;;;;;4.03;3.73;;;16.20;76.10;;;;;;5028428;28;20200;-90
2021/10/20 09:03:23;;;;;;;4.23;3.83;;;16.40;75.80;;;;;;5009567;28;20224;-91
2021/10/20 09:05:49;;;;;;;6.27;4.03;;;16.50;74.50;;;;;;5014648;28;20249;-91
2021/10/20 09:08:15;;;;;;;7.57;4.50;;;16.70;74.50;;;;;;5040451;28;20204;-91
2021/10/20 09:10:44;;;;;;;4.90;4.30;;;16.80;74.40;;;;;;5016449;28;20226;-91
2021/10/20 09:13:09;;;;;;;4.10;3.70;;;16.80;74.90;;;;;;5030171;28;20228;-89
2021/10/20 09:15:37;;;;;;;4.27;3.43;;;17.00;73.80;;;;;;5037419;28;20187;-89
2021/10/20 09:18:20;;;;;;;4.00;3.70;;;17.30;74.60;;;;;;5053992;28;20925;-88
2021/10/20 09:20:47;;;;;;;4.73;3.83;;;17.40;72.00;;;;;;5034345;28;20290;-90
2021/10/20 09:23:13;;;;;;;4.70;4.00;;;17.40;71.40;;;;;;5027335;28;20220;-88
2021/10/20 09:25:40;;;;;;;3.90;3.60;;;17.40;72.70;;;;;;5032229;28;20279;-89
2021/10/20 09:28:28;;;;;;;4.73;4.33;;;17.50;72.90;;;;;;5038571;28;20188;-89
2021/10/20 09:30:57;;;;;;;4.17;3.80;;;17.50;72.40;;;;;;5038929;28;20211;-88
2021/10/20 09:33:24;;;;;;;5.00;3.77;;;17.50;71.90;;;;;;5023543;28;20219;-90
2021/10/20 09:35:49;;;;;;;5.10;3.90;;;17.50;72.50;;;;;;5020827;28;20197;-89
2021/10/20 09:38:15;;;;;;;4.50;3.93;;;17.60;71.70;;;;;;5039049;28;20697;-87
2021/10/20 09:40:48;;;;;;;6.00;4.90;;;17.70;71.90;;;;;;5037681;28;20190;-89
2021/10/20 09:43:18;;;;;;;4.40;4.00;;;17.80;72.30;;;;;;5035038;28;20263;-87
2021/10/20 09:45:45;;;;;;;7.50;4.00;;;18.00;69.80;;;;;;5042542;28;20278;-89
2021/10/20 09:48:12;;;;;;;5.20;4.10;;;17.90;71.50;;;;;;5040548;28;20676;-89
2021/10/20 09:50:40;;;;;;;4.83;4.40;;;17.90;71.90;;;;;;5021732;28;20284;-88
2021/10/20 09:53:06;;;;;;;5.60;4.33;;;17.90;73.00;;;;;;5002162;28;20223;-89
2021/10/20 09:55:32;;;;;;;4.50;4.00;;;18.30;70.80;;;;;;5038857;28;20206;-89
2021/10/20 09:58:25;;;;;;;4.72;4.32;;;18.70;70.10;;;;;;5041154;28;20242;-89
2021/10/20 10:00:53;;;;;;;5.57;4.67;;;18.70;70.10;;;;;;5037240;28;20206;-90
2021/10/20 10:03:19;;;;;;;4.37;3.97;;;18.80;70.20;;;;;;5024890;28;20260;-90
2021/10/20 10:05:46;;;;;;;5.68;4.30;;;19.00;68.50;;;;;;5045875;28;20186;-90
2021/10/20 10:08:12;;;;;;;4.35;4.03;;;19.50;65.70;;;;;;5044958;28;20585;-90
2021/10/20 10:10:38;;;;;;;6.97;4.03;;;19.50;65.30;;;;;;5025548;28;20199;-90
2021/10/20 10:13:12;;;;;;;5.43;3.97;;;19.60;65.90;;;;;;5043849;28;20222;-89
2021/10/20 10:15:40;;;;;;;4.70;3.90;;;19.40;67.50;;;;;;5044290;28;20199;-89
2021/10/20 10:18:09;;;;;;;4.90;4.47;;;19.40;67.30;;;;;;5028779;28;20214;-90
2021/10/20 10:20:43;;;;;;;4.40;4.00;;;19.30;66.00;;;;;;5028610;28;20337;-91
2021/10/20 10:23:24;;;;;;;4.55;4.10;;;19.40;66.50;;;;;;5030331;28;20228;-90
2021/10/20 10:26:08;;;;;;;4.43;4.03;;;19.50;66.80;;;;;;5026614;28;20199;-89
2021/10/20 10:28:36;;;;;;;6.10;4.32;;;19.60;67.60;;;;;;5043474;28;20210;-90
2021/10/20 10:31:05;;;;;;;4.75;4.35;;;19.70;66.60;;;;;;5008368;28;20200;-90
2021/10/20 10:33:33;;;;;;;4.30;4.00;;;20.10;64.60;;;;;;5038454;28;20315;-90
2021/10/20 10:36:03;;;;;;;4.60;4.20;;;20.40;63.30;;;;;;5047236;28;20528;-92
2021/10/20 10:38:58;;;;;;;6.68;4.07;;;20.60;62.40;;;;;;5044176;28;20651;-92
2021/10/20 10:41:26;;;;;;;5.28;3.70;;;20.80;60.70;;;;;;5008337;28;20197;-91
2021/10/20 10:44:06;;;;;;;7.78;3.72;;;20.70;61.10;;;;;;5042662;28;20203;-92
2021/10/20 10:46:38;;;;;;;4.35;3.95;;;20.90;63.40;;;;;;5046762;28;20580;-91
2021/10/20 10:49:20;;;;;;;6.18;4.00;;;20.80;61.30;;;;;;5029219;28;20701;-91
2021/10/20 10:52:06;;;;;;;13.13;4.03;;;20.80;61.30;;;;;;5046629;28;20195;-91
2021/10/20 10:54:36;;;;;;;7.97;3.63;;;20.40;62.10;;;;;;5055689;28;20264;-90
2021/10/20 10:57:15;;;;;;;4.20;3.65;;;20.30;61.20;;;;;;5056034;28;20188;-90
2021/10/20 11:00:05;;;;;;;3.33;3.03;;;20.60;59.90;;;;;;5052488;28;20267;-88
2021/10/20 11:03:08;;;;;;;6.97;3.83;;;20.90;59.50;;;;;;5066521;28;20254;-91
2021/10/20 11:05:34;;;;;;;4.00;3.65;;;21.30;58.70;;;;;;5042499;28;20215;-92
2021/10/20 11:08:04;;;;;;;7.13;3.80;;;21.50;58.60;;;;;;5052640;28;20623;-92
2021/10/20 11:10:31;;;;;;;4.07;3.38;;;21.70;56.30;;;;;;5052970;28;20242;-90
2021/10/20 11:12:58;;;;;;;4.82;3.45;;;21.60;56.80;;;;;;5053530;28;20204;-91
2021/10/20 11:15:25;;;;;;;5.55;3.80;;;21.50;56.90;;;;;;5050667;28;20489;-92
2021/10/20 11:17:51;;;;;;;4.28;3.63;;;21.70;56.30;;;;;;5031866;28;20585;-92
2021/10/20 11:20:20;;;;;;;3.55;3.25;;;21.80;57.80;;;;;;5035718;28;20190;-92
2021/10/20 11:22:47;;;;;;;4.03;3.50;;;21.90;56.40;;;;;;5035238;28;20295;-92
2021/10/20 11:25:14;;;;;;;4.35;3.40;;;21.80;56.30;;;;;;5052739;28;20285;-89
2021/10/20 11:27:52;;;;;;;3.70;3.40;;;21.30;58.20;;;;;;5055357;28;20196;-89
2021/10/20 11:30:20;;;;;;;3.58;3.28;;;21.20;57.70;;;;;;5056743;28;20787;-92
2021/10/20 11:32:47;;;;;;;3.70;3.40;;;21.20;58.60;;;;;;5054124;28;20263;-93
2021/10/20 11:35:19;;;;;;;3.58;3.28;;;20.90;58.30;;;;;;5054306;28;20189;-92
2021/10/20 11:38:06;;;;;;;5.80;3.55;;;20.80;59.10;;;;;;5050401;28;20188;-93
2021/10/20 11:40:42;;;;;;;6.22;3.60;;;20.80;59.30;;;;;;5033663;28;20192;-92
2021/10/20 11:43:35;;;;;;;4.20;3.90;;;20.70;59.50;;;;;;5039820;28;20891;-92
2021/10/20 11:46:02;;;;;;;4.05;3.55;;;20.70;60.30;;;;;;5063492;28;20206;-92
2021/10/20 11:48:28;;;;;;;5.90;3.85;;;20.60;60.70;;;;;;5056282;28;20169;-92
2021/10/20 11:50:56;;;;;;;5.22;3.60;;;20.50;60.60;;;;;;5047004;28;20264;-92
2021/10/20 11:53:23;;;;;;;3.55;3.35;;;20.50;61.10;;;;;;5026512;28;20216;-92
2021/10/20 11:55:52;;;;;;;4.78;3.13;;;20.40;60.00;;;;;;5035484;28;20185;-92
2021/10/20 11:58:25;;;;;;;5.70;3.83;;;20.20;61.40;;;;;;5037933;28;20176;-91
2021/10/20 12:00:53;;;;;;;6.05;3.65;;;20.10;62.10;;;;;;5051444;28;20184;-92
2021/10/20 12:03:19;;;;;;;4.53;3.70;;;20.00;62.60;;;;;;5038146;28;20233;-92
2021/10/20 12:05:46;;;;;;;3.60;3.30;;;20.10;63.20;;;;;;5061426;28;20208;-91
2021/10/20 12:08:12;;;;;;;4.07;3.78;;;20.10;61.50;;;;;;5054627;28;20196;-92
2021/10/20 12:10:38;;;;;;;3.78;3.47;;;20.00;61.90;;;;;;5037125;28;20197;-91
2021/10/20 12:13:07;;;;;;;4.07;3.78;;;20.00;63.00;;;;;;5019965;28;20220;-92
2021/10/20 12:15:40;;;;;;;4.05;3.35;;;20.10;62.60;;;;;;5060510;28;20183;-92
2021/10/20 12:18:08;;;;;;;5.15;4.25;;;20.00;63.60;;;;;;5039967;28;20181;-92
2021/10/20 12:20:34;;;;;;;3.83;3.40;;;19.90;64.10;;;;;;5028291;28;20227;-91
2021/10/20 12:22:59;;;;;;;4.95;3.80;;;19.90;63.70;;;;;;5034690;28;20280;-91
2021/10/20 12:25:25;;;;;;;4.20;3.83;;;19.90;63.70;;;;;;5050464;28;20227;-92
2021/10/20 12:27:51;;;;;;;4.47;3.65;;;19.80;63.40;;;;;;5050360;28;20196;-91
2021/10/20 12:30:17;;;;;;;6.30;3.90;;;19.90;64.30;;;;;;5053793;28;20231;-90
2021/10/20 12:32:44;;;;;;;5.88;3.60;;;19.80;63.60;;;;;;5008276;28;21000;-89
2021/10/20 12:35:15;;;;;;;5.55;4.05;;;19.90;63.20;;;;;;5040910;28;20182;-91
2021/10/20 12:37:43;;;;;;;4.35;3.95;;;19.90;63.20;;;;;;5032076;28;20274;-90
2021/10/20 12:40:22;;;;;;;7.28;4.07;;;19.90;63.00;;;;;;5050681;28;20219;-90
2021/10/20 12:43:07;;;;;;;6.93;3.65;;;20.00;63.80;;;;;;5049055;28;20241;-91
2021/10/20 12:45:35;;;;;;;4.78;3.33;;;19.90;63.50;;;;;;5034513;28;20195;-90
2021/10/20 12:48:04;;;;;;;4.00;3.63;;;19.90;63.00;;;;;;5052246;28;20655;-90